sensor_id;sensor_type;location;lat;lon;timestamp;temperature;humidity
12520;DHT22;6325;49.540;8.364;2022-10-28T09:29:43;17.10;99.90
12520;DHT22;6325;49.540;8.364;2022-10-28T09:32:22;17.40;99.90
12520;DHT22;6325;49.540;8.364;2022-10-28T09:34:55;17.10;99.90
12520;DHT22;6325;49.540;8.364;2022-10-28T09:37:27;16.90;99.90
12520;DHT22;6325;49.540;8.364;2022-10-28T09:39:56;17.30;99.90
12520;DHT22;6325;49.540;8.364;2022-10-28T09:42:28;17.50;99.90
12520;DHT22;6325;49.540;8.364;2022-10-28T09:44:59;17.30;99.90
12520;DHT22;6325;49.540;8.364;2022-10-28T09:47:30;17.10;99.90
12520;DHT22;6325;49.540;8.364;2022-10-28T09:50:11;17.80;99.90
12520;DHT22;6325;49.540;8.364;2022-10-28T09:52:51;17.40;99.90
12520;DHT22;6325;49.540;8.364;2022-10-28T09:55:21;17.40;99.90
12520;DHT22;6325;49.540;8.364;2022-10-28T09:57:48;18.00;99.90
12520;DHT22;6325;49.540;8.364;2022-10-28T10:03:38;17.40;99.90
12520;DHT22;6325;49.540;8.364;2022-10-28T10:06:27;18.20;99.90
12520;DHT22;6325;49.540;8.364;2022-10-28T10:08:55;18.30;99.90
12520;DHT22;6325;49.540;8.364;2022-10-28T10:14:01;18.60;99.90
12520;DHT22;6325;49.540;8.364;2022-10-28T10:16:38;18.30;99.90
12520;DHT22;6325;49.540;8.364;2022-10-28T10:19:09;18.30;99.90
12520;DHT22;6325;49.540;8.364;2022-10-28T10:21:42;19.20;99.90
12520;DHT22;6325;49.540;8.364;2022-10-28T10:24:29;18.30;99.90
12520;DHT22;6325;49.540;8.364;2022-10-28T10:26:59;18.70;99.90
12520;DHT22;6325;49.540;8.364;2022-10-28T10:29:27;19.00;99.90
12520;DHT22;6325;49.540;8.364;2022-10-28T10:32:11;19.40;99.90
12520;DHT22;6325;49.540;8.364;2022-10-28T10:34:44;18.70;99.90
12520;DHT22;6325;49.540;8.364;2022-10-28T10:37:19;19.40;99.90
12520;DHT22;6325;49.540;8.364;2022-10-28T10:40:02;19.70;99.90
12520;DHT22;6325;49.540;8.364;2022-10-28T10:42:30;19.70;99.90
12520;DHT22;6325;49.540;8.364;2022-10-28T10:45:00;20.10;99.90
12520;DHT22;6325;49.540;8.364;2022-10-28T10:47:28;19.90;99.90
12520;DHT22;6325;49.540;8.364;2022-10-28T10:53:00;19.70;99.90
12520;DHT22;6325;49.540;8.364;2022-10-28T10:55:38;19.90;99.90
12520;DHT22;6325;49.540;8.364;2022-10-28T10:58:14;20.00;99.90
12520;DHT22;6325;49.540;8.364;2022-10-28T11:00:45;20.00;99.90
12520;DHT22;6325;49.540;8.364;2022-10-28T11:03:17;20.10;99.90
12520;DHT22;6325;49.540;8.364;2022-10-28T11:05:49;20.10;99.90
12520;DHT22;6325;49.540;8.364;2022-10-28T11:08:30;20.20;99.90
12520;DHT22;6325;49.540;8.364;2022-10-28T11:11:10;20.30;99.90
12520;DHT22;6325;49.540;8.364;2022-10-28T11:13:40;20.40;99.90
12520;DHT22;6325;49.540;8.364;2022-10-28T11:16:16;20.40;99.90
12520;DHT22;6325;49.540;8.364;2022-10-28T11:18:45;20.20;99.90
12520;DHT22;6325;49.540;8.364;2022-10-28T11:21:25;20.50;99.90
12520;DHT22;6325;49.540;8.364;2022-10-28T11:24:07;20.60;99.90
12520;DHT22;6325;49.540;8.364;2022-10-28T11:26:43;20.60;99.90
12520;DHT22;6325;49.540;8.364;2022-10-28T11:29:14;20.90;99.90
12520;DHT22;6325;49.540;8.364;2022-10-28T11:32:11;21.10;99.90
12520;DHT22;6325;49.540;8.364;2022-10-28T11:35:16;21.00;99.90
12520;DHT22;6325;49.540;8.364;2022-10-28T11:37:59;20.80;99.90
12520;DHT22;6325;49.540;8.364;2022-10-28T11:40:38;21.50;99.90
12520;DHT22;6325;49.540;8.364;2022-10-28T11:43:19;21.30;99.90
12520;DHT22;6325;49.540;8.364;2022-10-28T11:45:58;21.10;99.90
12520;DHT22;6325;49.540;8.364;2022-10-28T11:48:45;21.90;99.90
12520;DHT22;6325;49.540;8.364;2022-10-28T11:51:24;21.80;99.90
12520;DHT22;6325;49.540;8.364;2022-10-28T11:54:05;22.20;99.90
12520;DHT22;6325;49.540;8.364;2022-10-28T11:56:40;22.50;99.90
12520;DHT22;6325;49.540;8.364;2022-10-28T11:59:25;22.70;99.90
12520;DHT22;6325;49.540;8.364;2022-10-28T12:02:06;22.80;99.90
12520;DHT22;6325;49.540;8.364;2022-10-28T12:04:47;22.80;99.90
12520;DHT22;6325;49.540;8.364;2022-10-28T12:07:41;22.90;99.90
12520;DHT22;6325;49.540;8.364;2022-10-28T12:10:18;23.00;99.90
12520;DHT22;6325;49.540;8.364;2022-10-28T12:12:55;23.80;99.90
12520;DHT22;6325;49.540;8.364;2022-10-28T12:15:30;24.00;99.90
12520;DHT22;6325;49.540;8.364;2022-10-28T12:18:03;23.60;99.90
12520;DHT22;6325;49.540;8.364;2022-10-28T12:20:36;23.80;99.90
12520;DHT22;6325;49.540;8.364;2022-10-28T12:23:10;24.10;99.90
12520;DHT22;6325;49.540;8.364;2022-10-28T12:25:40;24.60;99.90
12520;DHT22;6325;49.540;8.364;2022-10-28T12:28:17;24.80;99.90
